Time;durP1;ratioP1;P1;durP2;ratioP2;P2;SDS_P1;SDS_P2;PMS_P1;PMS_P2;Temp;Humidity;BMP_temperature;BMP_pressure;BME280_temperature;BME280_humidity;BME280_pressure;Samples;Min_cycle;Max_cycle;Signal;HPM_P1;HPM_P2
2023/03/11 00:01:47;;;;;;;0.50;0.50;;;;;;;-141.59;100.00;61776.25;5083425;28;20240;-88
2023/03/11 00:04:14;;;;;;;0.50;0.50;;;;;;;-141.59;100.00;61776.25;5075795;28;20201;-89
2023/03/11 00:06:41;;;;;;;0.50;0.50;;;;;;;-141.59;100.00;61776.25;5081152;28;20209;-90
2023/03/11 00:09:08;;;;;;;0.40;0.40;;;;;;;-141.59;100.00;61776.25;5076230;28;20298;-89
2023/03/11 00:11:35;;;;;;;0.97;0.53;;;;;;;-141.59;100.00;61776.25;5084655;28;20209;-90
2023/03/11 00:14:03;;;;;;;0.40;0.40;;;;;;;-141.59;100.00;61776.25;5077157;27;20231;-88
2023/03/11 00:16:30;;;;;;;0.70;0.60;;;;;;;-141.59;100.00;61776.25;5089833;28;20200;-89
2023/03/11 00:18:59;;;;;;;0.70;0.70;;;;;;;-141.59;100.00;61776.25;5092981;28;20252;-88
2023/03/11 00:21:26;;;;;;;0.53;0.53;;;;;;;-141.59;100.00;61776.25;5090123;28;20304;-90
2023/03/11 00:23:53;;;;;;;0.80;0.80;;;;;;;-141.59;100.00;61776.25;5083052;28;20197;-89
2023/03/11 00:26:20;;;;;;;0.70;0.70;;;;;;;-141.59;100.00;61776.25;5082216;28;20209;-89
2023/03/11 00:28:48;;;;;;;1.60;0.63;;;;;;;-141.59;100.00;61776.25;5084809;28;20250;-90
2023/03/11 00:31:15;;;;;;;0.50;0.50;;;;;;;-141.59;100.00;61776.25;5076590;28;20200;-89
2023/03/11 00:33:42;;;;;;;0.50;0.50;;;;;;;-141.59;100.00;61776.25;5087790;28;20276;-92
2023/03/11 00:36:22;;;;;;;0.50;0.50;;;;;;;-141.59;100.00;61776.25;5079577;28;20189;-90
2023/03/11 00:38:49;;;;;;;0.70;0.70;;;;;;;-141.59;100.00;61776.25;5089523;28;20211;-90
2023/03/11 00:41:17;;;;;;;0.60;0.60;;;;;;;-141.59;100.00;61776.25;5088627;28;20204;-90
2023/03/11 00:43:45;;;;;;;0.70;0.60;;;;;;;-141.59;100.00;61776.25;5086491;28;20208;-91
2023/03/11 00:46:12;;;;;;;0.60;0.60;;;;;;;-141.59;100.00;61776.25;5096084;27;20199;-88
2023/03/11 00:48:39;;;;;;;0.60;0.60;;;;;;;-141.59;100.00;61776.25;5080587;28;20253;-89
2023/03/11 00:51:07;;;;;;;1.27;0.60;;;;;;;-141.59;100.00;61776.25;5079630;28;20317;-88
2023/03/11 00:53:36;;;;;;;0.60;0.60;;;;;;;-141.59;100.00;61776.25;5087290;28;20291;-89
2023/03/11 00:56:07;;;;;;;0.73;0.73;;;;;;;-141.59;100.00;61776.25;5082581;28;20204;-89
2023/03/11 00:58:35;;;;;;;0.50;0.50;;;;;;;-141.59;100.00;61776.25;5075489;28;20197;-88
2023/03/11 01:01:08;;;;;;;0.60;0.60;;;;;;;-141.59;100.00;61776.25;5083906;28;20219;-90
2023/03/11 01:03:36;;;;;;;0.50;0.50;;;;;;;-141.59;100.00;61776.25;5081676;28;20199;-90
2023/03/11 01:06:04;;;;;;;0.53;0.53;;;;;;;-141.59;100.00;61776.25;5079726;28;20201;-90
2023/03/11 01:08:31;;;;;;;0.50;0.50;;;;;;;-141.59;100.00;61776.25;5085836;28;20207;-88
2023/03/11 01:11:00;;;;;;;0.60;0.60;;;;;;;-141.59;100.00;61776.25;5082193;28;20221;-90
2023/03/11 01:13:29;;;;;;;0.67;0.67;;;;;;;-141.59;100.00;61776.25;5089115;28;20235;-86
2023/03/11 01:15:57;;;;;;;0.50;0.50;;;;;;;-141.59;100.00;61776.25;5089768;28;20204;-91
2023/03/11 01:18:25;;;;;;;0.67;0.67;;;;;;;-141.59;100.00;61776.25;5079122;28;20200;-90
2023/03/11 01:20:53;;;;;;;0.50;0.50;;;;;;;-141.59;100.00;61776.25;5080542;28;20211;-89
2023/03/11 01:23:21;;;;;;;0.50;0.50;;;;;;;-141.59;100.00;61776.25;5083092;28;20279;-90
2023/03/11 01:25:49;;;;;;;0.50;0.50;;;;;;;-141.59;100.00;61776.25;5079496;28;20193;-90
2023/03/11 01:28:17;;;;;;;0.57;0.57;;;;;;;-141.59;100.00;61776.25;5079156;28;20197;-89
2023/03/11 01:30:45;;;;;;;0.50;0.50;;;;;;;-141.59;100.00;61776.25;5078163;28;20228;-90
2023/03/11 01:33:15;;;;;;;0.47;0.47;;;;;;;-141.59;100.00;61776.25;5085932;28;20210;-90
2023/03/11 01:35:44;;;;;;;0.50;0.50;;;;;;;-141.59;100.00;61776.25;5077105;28;20205;-91
2023/03/11 01:38:12;;;;;;;0.40;0.40;;;;;;;-141.59;100.00;61776.25;5088394;28;20269;-88
2023/03/11 01:40:43;;;;;;;0.40;0.40;;;;;;;-141.59;100.00;61776.25;5078105;28;20230;-88
2023/03/11 01:43:54;;;;;;;0.50;0.50;;;;;;;-141.59;100.00;61776.25;5081304;28;20223;-88
2023/03/11 01:46:27;;;;;;;0.50;0.50;;;;;;;-141.59;100.00;61776.25;5076028;28;20215;-88
2023/03/11 01:48:58;;;;;;;0.40;0.40;;;;;;;-141.59;100.00;61776.25;5086895;28;20228;-87
2023/03/11 01:51:32;;;;;;;0.40;0.40;;;;;;;-141.59;100.00;61776.25;5083617;28;20228;-87
2023/03/11 01:54:04;;;;;;;0.40;0.40;;;;;;;-141.59;100.00;61776.25;5098787;28;20250;-87
2023/03/11 01:56:33;;;;;;;0.40;0.40;;;;;;;-141.59;100.00;61776.25;5086842;28;20201;-88
2023/03/11 01:59:00;;;;;;;0.50;0.50;;;;;;;-141.59;100.00;61776.25;5089090;28;20201;-88
2023/03/11 02:01:30;;;;;;;0.43;0.43;;;;;;;-141.59;100.00;61776.25;5096585;28;20200;-88
2023/03/11 02:03:58;;;;;;;0.43;0.43;;;;;;;-141.59;100.00;61776.25;5086722;28;20204;-87
2023/03/11 02:06:26;;;;;;;0.50;0.50;;;;;;;-141.59;100.00;61776.25;5090065;27;20196;-87
2023/03/11 02:08:55;;;;;;;0.50;0.50;;;;;;;-141.59;100.00;61776.25;5090401;28;20235;-88
2023/03/11 02:11:27;;;;;;;0.40;0.40;;;;;;;-141.59;100.00;61776.25;5098818;28;20229;-87
2023/03/11 02:13:59;;;;;;;0.40;0.40;;;;;;;-141.59;100.00;61776.25;5105943;28;20220;-87
2023/03/11 02:16:26;;;;;;;0.53;0.53;;;;;;;-141.59;100.00;61776.25;5109420;28;20199;-89
2023/03/11 02:18:55;;;;;;;0.40;0.40;;;;;;;-141.59;100.00;61776.25;5106045;28;20212;-89
2023/03/11 02:21:25;;;;;;;0.40;0.40;;;;;;;-141.59;100.00;61776.25;5095870;28;20250;-88
2023/03/11 02:24:00;;;;;;;0.50;0.50;;;;;;;-141.59;100.00;61776.25;5096379;27;20200;-89
2023/03/11 02:26:33;;;;;;;0.47;0.47;;;;;;;-141.59;100.00;61776.25;5102732;27;20201;-92
2023/03/11 02:29:06;;;;;;;0.40;0.40;;;;;;;-141.59;100.00;61776.25;5099383;28;20388;-91
2023/03/11 02:31:36;;;;;;;0.40;0.40;;;;;;;-141.59;100.00;61776.25;5104162;28;20316;-88
2023/03/11 02:34:08;;;;;;;0.40;0.40;;;;;;;-141.59;100.00;61776.25;5105743;28;20218;-88
2023/03/11 02:36:38;;;;;;;0.50;0.50;;;;;;;-141.59;100.00;61776.25;5101790;28;20308;-86
2023/03/11 02:39:08;;;;;;;0.53;0.53;;;;;;;-141.59;100.00;61776.25;5092791;28;20232;-86
2023/03/11 02:41:39;;;;;;;0.43;0.43;;;;;;;-141.59;100.00;61776.25;5104075;28;20208;-85
2023/03/11 02:44:11;;;;;;;0.40;0.40;;;;;;;-141.59;100.00;61776.25;5103073;28;20290;-87
2023/03/11 02:46:41;;;;;;;0.50;0.50;;;;;;;-141.59;100.00;61776.25;5094150;27;20216;-86
2023/03/11 02:49:10;;;;;;;0.40;0.40;;;;;;;-141.59;100.00;61776.25;5098676;27;20232;-85
2023/03/11 02:51:37;;;;;;;0.60;0.60;;;;;;;-141.59;100.00;61776.25;5101988;28;20266;-86
2023/03/11 02:54:06;;;;;;;1.23;0.50;;;;;;;-141.59;100.00;61776.25;5097718;28;20196;-86
2023/03/11 02:56:35;;;;;;;0.50;0.50;;;;;;;-141.59;100.00;61776.25;5094293;28;20262;-87
2023/03/11 02:59:02;;;;;;;0.50;0.50;;;;;;;-141.59;100.00;61776.25;5094356;28;20240;-86
2023/03/11 03:01:31;;;;;;;0.70;0.70;;;;;;;-141.59;100.00;61776.25;5100964;28;20235;-86
2023/03/11 03:03:59;;;;;;;0.50;0.50;;;;;;;-141.59;100.00;61776.25;5101276;28;20247;-86
2023/03/11 03:06:28;;;;;;;0.60;0.60;;;;;;;-141.59;100.00;61776.25;5103960;28;20198;-86
2023/03/11 03:08:55;;;;;;;0.50;0.50;;;;;;;-141.59;100.00;61776.25;5096560;28;20253;-87
2023/03/11 03:11:22;;;;;;;0.57;0.57;;;;;;;-141.59;100.00;61776.25;5096660;27;20227;-87
2023/03/11 03:13:49;;;;;;;0.43;0.43;;;;;;;-141.59;100.00;61776.25;5105227;28;20227;-87
2023/03/11 03:16:17;;;;;;;0.90;0.60;;;;;;;-141.59;100.00;61776.25;5099386;28;20199;-87
2023/03/11 03:18:45;;;;;;;0.73;0.43;;;;;;;-141.59;100.00;61776.25;5103507;27;20199;-86
2023/03/11 03:21:13;;;;;;;0.40;0.40;;;;;;;-141.59;100.00;61776.25;5101207;28;20206;-87
2023/03/11 03:23:40;;;;;;;0.77;0.70;;;;;;;-141.59;100.00;61776.25;5102594;28;20203;-87
2023/03/11 03:26:07;;;;;;;0.50;0.50;;;;;;;-141.59;100.00;61776.25;5114853;27;20313;-87
2023/03/11 03:28:37;;;;;;;0.50;0.50;;;;;;;-141.59;100.00;61776.25;5104735;28;20193;-87
2023/03/11 03:31:08;;;;;;;0.60;0.60;;;;;;;-141.59;100.00;61776.25;5103853;28;20219;-89
2023/03/11 03:33:37;;;;;;;0.50;0.50;;;;;;;-141.59;100.00;61776.25;5093151;28;20200;-88
2023/03/11 03:36:11;;;;;;;0.50;0.50;;;;;;;-141.59;100.00;61776.25;5100574;28;20208;-88
2023/03/11 03:38:56;;;;;;;1.33;0.60;;;;;;;-141.59;100.00;61776.25;5099509;28;20220;-88
2023/03/11 03:41:27;;;;;;;0.80;0.80;;;;;;;-141.59;100.00;61776.25;5092309;28;20208;-88
2023/03/11 03:43:54;;;;;;;0.40;0.40;;;;;;;-141.59;100.00;61776.25;5102541;28;20251;-88
2023/03/11 03:46:22;;;;;;;0.40;0.40;;;;;;;-141.59;100.00;61776.25;5101223;28;20204;-86
2023/03/11 03:48:52;;;;;;;1.03;0.80;;;;;;;-141.59;100.00;61776.25;5095680;28;20235;-86
2023/03/11 03:51:21;;;;;;;0.40;0.40;;;;;;;-141.59;100.00;61776.25;5116192;27;20224;-88
2023/03/11 03:54:04;;;;;;;0.40;0.40;;;;;;;-141.59;100.00;61776.25;5092667;28;20204;-87
2023/03/11 03:56:33;;;;;;;0.40;0.40;;;;;;;-141.59;100.00;61776.25;5098409;28;20216;-87
2023/03/11 03:59:01;;;;;;;0.50;0.50;;;;;;;-141.59;100.00;61776.25;5109763;27;20196;-87
2023/03/11 04:01:35;;;;;;;0.70;0.70;;;;;;;-141.59;100.00;61776.25;5102650;28;20204;-86
2023/03/11 04:04:03;;;;;;;0.60;0.60;;;;;;;-141.59;100.00;61776.25;5090935;28;20211;-84
2023/03/11 04:06:31;;;;;;;0.60;0.60;;;;;;;-141.59;100.00;61776.25;5101008;28;20197;-84
2023/03/11 04:09:03;;;;;;;0.40;0.40;;;;;;;-141.59;100.00;61776.25;5098333;28;20196;-83
2023/03/11 04:11:33;;;;;;;0.60;0.60;;;;;;;-141.59;100.00;61776.25;5094860;28;20220;-83
2023/03/11 04:14:02;;;;;;;0.60;0.60;;;;;;;-141.59;100.00;61776.25;5099984;28;20213;-85
2023/03/11 04:16:30;;;;;;;0.60;0.60;;;;;;;-141.59;100.00;61776.25;5108780;28;20207;-86
2023/03/11 04:19:03;;;;;;;0.63;0.63;;;;;;;-141.59;100.00;61776.25;5100626;28;20212;-86
2023/03/11 04:21:32;;;;;;;0.70;0.70;;;;;;;-141.59;100.00;61776.25;5096343;28;20211;-86
2023/03/11 04:24:00;;;;;;;0.60;0.60;;;;;;;-141.59;100.00;61776.25;5097294;28;20202;-86
2023/03/11 04:26:31;;;;;;;0.70;0.70;;;;;;;-141.59;100.00;61776.25;5094061;28;20208;-86
2023/03/11 04:28:59;;;;;;;0.70;0.70;;;;;;;-141.59;100.00;61776.25;5098819;28;20205;-87
2023/03/11 04:31:29;;;;;;;1.40;1.20;;;;;;;-141.59;100.00;61776.25;5095415;28;20221;-87
2023/03/11 04:33:59;;;;;;;1.20;1.10;;;;;;;-141.59;100.00;61776.25;5096021;28;20215;-87
2023/03/11 04:36:26;;;;;;;1.10;1.00;;;;;;;-141.59;100.00;61776.25;5096559;28;20276;-88
2023/03/11 04:38:56;;;;;;;1.30;1.20;;;;;;;-141.59;100.00;61776.25;5091377;28;20204;-88
2023/03/11 04:41:24;;;;;;;1.00;0.90;;;;;;;-141.59;100.00;61776.25;5095666;28;20200;-88
2023/03/11 04:43:51;;;;;;;1.07;0.97;;;;;;;-141.59;100.00;61776.25;5098561;28;20240;-87
2023/03/11 04:46:18;;;;;;;0.97;0.90;;;;;;;-141.59;100.00;61776.25;5102227;28;20208;-85
2023/03/11 04:48:45;;;;;;;0.90;0.90;;;;;;;-141.59;100.00;61776.25;5108611;28;20271;-87
2023/03/11 04:51:14;;;;;;;1.07;0.73;;;;;;;-141.59;100.00;61776.25;5097911;28;20234;-88
2023/03/11 04:53:41;;;;;;;0.80;0.80;;;;;;;-141.59;100.00;61776.25;5096991;28;20212;-86
2023/03/11 04:56:10;;;;;;;0.80;0.80;;;;;;;-141.59;100.00;61776.25;5096214;28;20220;-86
2023/03/11 04:58:39;;;;;;;0.70;0.70;;;;;;;-141.59;100.00;61776.25;5108458;28;20227;-87
2023/03/11 05:01:06;;;;;;;0.70;0.70;;;;;;;-141.59;100.00;61776.25;5109107;27;20305;-88
2023/03/11 05:03:34;;;;;;;0.93;0.90;;;;;;;-141.59;100.00;61776.25;5101341;28;20223;-87
2023/03/11 05:06:01;;;;;;;0.70;0.70;;;;;;;-141.59;100.00;61776.25;5103409;28;20208;-87
2023/03/11 05:08:28;;;;;;;0.80;0.80;;;;;;;-141.59;100.00;61776.25;5094992;28;20208;-88
2023/03/11 05:10:56;;;;;;;0.80;0.80;;;;;;;-141.59;100.00;61776.25;5101282;28;20219;-87
2023/03/11 05:13:25;;;;;;;1.17;1.07;;;;;;;-141.59;100.00;61776.25;5099731;28;20223;-88
2023/03/11 05:15:53;;;;;;;1.73;1.50;;;;;;;-141.59;100.00;61776.25;5098516;28;20253;-87
2023/03/11 05:18:21;;;;;;;1.00;1.00;;;;;;;-141.59;100.00;61776.25;5098387;28;20200;-89
2023/03/11 05:20:49;;;;;;;1.10;0.80;;;;;;;-141.59;100.00;61776.25;5097059;28;20208;-85
2023/03/11 05:23:18;;;;;;;0.90;0.90;;;;;;;-141.59;100.00;61776.25;5100448;28;20192;-89
2023/03/11 05:25:45;;;;;;;0.73;0.73;;;;;;;-141.59;100.00;61776.25;5101950;27;20210;-88
2023/03/11 05:28:12;;;;;;;1.20;1.10;;;;;;;-141.59;100.00;61776.25;5100017;28;20234;-90
2023/03/11 05:30:47;;;;;;;0.90;0.90;;;;;;;-141.59;100.00;61776.25;5105718;28;20226;-90
2023/03/11 05:33:14;;;;;;;1.07;1.00;;;;;;;-141.59;100.00;61776.25;5103702;27;20250;-90
2023/03/11 05:35:42;;;;;;;2.63;2.03;;;;;;;-141.59;100.00;61776.25;5106957;28;20205;-90
2023/03/11 05:38:10;;;;;;;2.30;2.00;;;;;;;-141.59;100.00;61776.25;5113936;28;20196;-91
2023/03/11 05:40:38;;;;;;;1.87;1.50;;;;;;;-141.59;100.00;61776.25;5099395;27;20208;-90
2023/03/11 05:43:05;;;;;;;1.50;1.37;;;;;;;-141.59;100.00;61776.25;5095405;28;20205;-90
2023/03/11 05:45:37;;;;;;;1.40;1.30;;;;;;;-141.59;100.00;61776.25;5102527;28;20205;-88
2023/03/11 05:48:06;;;;;;;2.13;1.30;;;;;;;-141.59;100.00;61776.25;5106787;28;20304;-88
2023/03/11 05:50:34;;;;;;;1.90;1.63;;;;;;;-141.59;100.00;61776.25;5102430;28;20239;-86
2023/03/11 05:53:02;;;;;;;1.70;1.50;;;;;;;-141.59;100.00;61776.25;5102185;28;20193;-86
2023/03/11 05:55:31;;;;;;;1.80;1.63;;;;;;;-141.59;100.00;61776.25;5100645;28;20300;-84
2023/03/11 05:57:59;;;;;;;1.47;1.37;;;;;;;-141.59;100.00;61776.25;5099945;28;20231;-84
2023/03/11 06:00:28;;;;;;;2.00;1.60;;;;;;;-141.59;100.00;61776.25;5105745;28;20292;-84
2023/03/11 06:02:57;;;;;;;1.57;1.10;;;;;;;-141.59;100.00;61776.25;5106806;28;20282;-84
2023/03/11 06:05:26;;;;;;;1.10;1.00;;;;;;;-141.59;100.00;61776.25;5124391;27;20229;-84
2023/03/11 06:07:55;;;;;;;1.93;1.60;;;;;;;-141.59;100.00;61776.25;5095363;28;20203;-85
2023/03/11 06:10:23;;;;;;;4.67;2.80;;;;;;;-141.59;100.00;61776.25;5097554;27;20197;-85
2023/03/11 06:12:50;;;;;;;1.70;1.50;;;;;;;-141.59;100.00;61776.25;5098777;28;20314;-87
2023/03/11 06:15:29;;;;;;;1.33;1.10;;;;;;;-141.59;100.00;61776.25;5101889;28;20257;-87
2023/03/11 06:17:58;;;;;;;1.30;1.20;;;;;;;-141.59;100.00;61776.25;5097487;28;20274;-86
2023/03/11 06:20:27;;;;;;;1.50;1.30;;;;;;;-141.59;100.00;61776.25;5101606;28;20192;-87
2023/03/11 06:22:57;;;;;;;1.30;1.20;;;;;;;-141.59;100.00;61776.25;5105892;28;20220;-85
2023/03/11 06:25:26;;;;;;;1.20;1.10;;;;;;;-141.59;100.00;61776.25;5101575;27;20223;-86
2023/03/11 06:27:54;;;;;;;1.20;1.10;;;;;;;-141.59;100.00;61776.25;5096463;28;20217;-89
2023/03/11 06:30:25;;;;;;;1.87;1.23;;;;;;;-141.59;100.00;61776.25;5099468;28;20253;-86
2023/03/11 06:33:00;;;;;;;1.27;1.17;;;;;;;-141.59;100.00;61776.25;5094753;28;20216;-85
2023/03/11 06:35:28;;;;;;;5.13;1.20;;;;;;;-141.59;100.00;61776.25;5106969;28;20197;-85
2023/03/11 06:37:56;;;;;;;1.60;1.30;;;;;;;-141.59;100.00;61776.25;5093268;28;20200;-85
2023/03/11 06:40:23;;;;;;;2.60;1.33;;;;;;;-141.59;100.00;61776.25;5100804;27;20207;-85
2023/03/11 06:42:50;;;;;;;1.30;1.10;;;;;;;-141.59;100.00;61776.25;5102883;28;20218;-85
2023/03/11 06:45:20;;;;;;;4.53;1.20;;;;;;;-141.59;100.00;61776.25;5093284;28;21005;-86
2023/03/11 06:47:47;;;;;;;2.03;1.30;;;;;;;-141.59;100.00;61776.25;5094969;28;20232;-85
2023/03/11 06:50:14;;;;;;;2.00;1.60;;;;;;;-141.59;100.00;61776.25;5108125;28;20212;-84
2023/03/11 06:52:43;;;;;;;1.70;1.40;;;;;;;-141.59;100.00;61776.25;5097388;27;20228;-84
2023/03/11 06:55:10;;;;;;;1.40;1.30;;;;;;;-141.59;100.00;61776.25;5094769;28;20200;-84
2023/03/11 06:57:37;;;;;;;1.20;1.10;;;;;;;-141.59;100.00;61776.25;5103097;28;20211;-85
2023/03/11 07:00:11;;;;;;;2.87;1.30;;;;;;;-141.59;100.00;61776.25;5106446;27;20211;-85
2023/03/11 07:02:39;;;;;;;1.50;1.40;;;;;;;-141.59;100.00;61776.25;5102216;28;20196;-85
2023/03/11 07:05:07;;;;;;;1.30;1.20;;;;;;;-141.59;100.00;61776.25;5101887;28;20195;-86
2023/03/11 07:07:48;;;;;;;1.37;1.27;;;;;;;-141.59;100.00;61776.25;5096534;28;20244;-88
2023/03/11 07:10:34;;;;;;;2.53;1.30;;;;;;;-141.59;100.00;61776.25;5102549;28;20207;-91
2023/03/11 07:15:37;;;;;;;8.10;2.30;;;;;;;-141.59;100.00;61776.25;5068142;28;20277;-79
2023/03/11 07:18:05;;;;;;;3.03;2.10;;;;;;;-141.59;100.00;61776.25;5048946;28;20205;-78
2023/03/11 07:20:32;;;;;;;4.00;2.13;;;;;;;-141.59;100.00;61776.25;5041638;28;20252;-78
2023/03/11 07:22:59;;;;;;;3.53;2.57;;;;;;;-141.59;100.00;61776.25;5053285;28;20225;-77
2023/03/11 07:25:27;;;;;;;5.63;2.57;;;;;;;-141.59;100.00;61776.25;5049502;28;20197;-78
2023/03/11 07:27:54;;;;;;;3.10;2.70;;;;;;;-141.59;100.00;61776.25;5047561;28;20215;-78
2023/03/11 07:30:21;;;;;;;3.43;2.70;;;;;;;-141.59;100.00;61776.25;5066482;28;20197;-78
2023/03/11 07:32:48;;;;;;;4.70;2.87;;;;;;;-141.59;100.00;61776.25;5039838;28;20254;-80
2023/03/11 07:35:16;;;;;;;5.33;3.13;;;;;;;-141.59;100.00;61776.25;5054259;28;20288;-78
2023/03/11 07:37:43;;;;;;;4.37;2.80;;;;;;;-141.59;100.00;61776.25;5049534;28;20220;-79
2023/03/11 07:40:12;;;;;;;5.37;3.23;;;;;;;-141.59;100.00;61776.25;5049536;28;20200;-79
2023/03/11 07:42:40;;;;;;;3.83;3.17;;;;;;;-141.59;100.00;61776.25;5066584;28;20208;-79
2023/03/11 07:45:09;;;;;;;3.50;3.13;;;;;;;-141.59;100.00;61776.25;5047923;28;20228;-79
2023/03/11 07:47:36;;;;;;;3.40;2.70;;;;;;;-141.59;100.00;61776.25;5052446;28;20214;-79
2023/03/11 07:50:03;;;;;;;3.43;2.90;;;;;;;-141.59;100.00;61776.25;5045545;28;20197;-79
2023/03/11 07:52:31;;;;;;;7.87;3.70;;;;;;;-141.59;100.00;61776.25;5042412;28;20236;-79
2023/03/11 07:54:58;;;;;;;10.53;5.77;;;;;;;-141.59;100.00;61776.25;5047570;28;20202;-78
2023/03/11 07:57:25;;;;;;;8.20;5.60;;;;;;;-141.59;100.00;61776.25;5044972;28;20213;-79
2023/03/11 07:59:53;;;;;;;6.80;5.43;;;;;;;-141.59;100.00;61776.25;5050150;28;20224;-79
2023/03/11 08:02:20;;;;;;;6.67;4.90;;;;;;;-141.59;100.00;61776.25;5043150;28;20229;-79
2023/03/11 08:04:48;;;;;;;5.93;4.73;;;;;;;-141.59;100.00;61776.25;5052662;28;20213;-78
2023/03/11 08:07:15;;;;;;;6.20;5.13;;;;;;;-141.59;100.00;61776.25;5052437;28;20206;-78
2023/03/11 08:09:42;;;;;;;9.27;6.00;;;;;;;-141.59;100.00;61776.25;5050577;28;20229;-77
2023/03/11 08:12:09;;;;;;;7.00;5.33;;;;;;;-141.59;100.00;61776.25;5050591;28;20297;-78
2023/03/11 08:14:38;;;;;;;4.50;4.00;;;;;;;-141.59;100.00;61776.25;5063117;28;20239;-79
2023/03/11 08:17:07;;;;;;;3.83;3.40;;;;;;;-141.59;100.00;61776.25;5069580;28;20204;-78
2023/03/11 08:19:33;;;;;;;6.33;3.43;;;;;;;-141.59;100.00;61776.25;5068336;28;20205;-77
2023/03/11 08:22:02;;;;;;;5.13;3.00;;;;;;;-141.59;100.00;61776.25;5084373;28;20201;-78
2023/03/11 08:24:29;;;;;;;5.23;3.03;;;;;;;-141.59;100.00;61776.25;5066941;28;20285;-78
2023/03/11 08:26:57;;;;;;;6.13;2.77;;;;;;;-141.59;100.00;61776.25;5072171;28;20209;-78
2023/03/11 08:29:24;;;;;;;1.87;1.77;;;;;;;-141.59;100.00;61776.25;5058970;28;20200;-79
2023/03/11 08:31:51;;;;;;;3.50;2.07;;;;;;;-141.59;100.00;61776.25;5083503;28;20216;-77
2023/03/11 08:34:20;;;;;;;2.50;1.77;;;;;;;-141.59;100.00;61776.25;5076644;28;20201;-76
2023/03/11 08:36:47;;;;;;;2.07;1.80;;;;;;;-141.59;100.00;61776.25;5069312;28;20208;-88
2023/03/11 08:39:14;;;;;;;2.33;2.13;;;;;;;-141.59;100.00;61776.25;5072749;28;20193;-77
2023/03/11 08:41:41;;;;;;;3.10;2.07;;;;;;;-141.59;100.00;61776.25;5068934;28;20289;-77
2023/03/11 08:44:08;;;;;;;5.10;1.87;;;;;;;-141.59;100.00;61776.25;5068297;28;20201;-83
2023/03/11 08:46:38;;;;;;;3.03;2.20;;;;;;;-141.59;100.00;61776.25;5063285;28;20205;-78
2023/03/11 08:49:06;;;;;;;3.37;1.73;;;;;;;-141.59;100.00;61776.25;5073860;28;20205;-78
2023/03/11 08:51:35;;;;;;;2.77;1.80;;;;;;;-141.59;100.00;61776.25;5076978;28;20197;-78
2023/03/11 08:54:03;;;;;;;6.00;1.70;;;;;;;-141.59;100.00;61776.25;5071579;28;20209;-78
2023/03/11 08:56:30;;;;;;;3.13;1.63;;;;;;;-141.59;100.00;61776.25;5087154;28;20197;-77
2023/03/11 08:58:57;;;;;;;1.90;1.70;;;;;;;-141.59;100.00;61776.25;5069712;28;20210;-77
2023/03/11 09:01:26;;;;;;;1.80;1.63;;;;;;;-141.59;100.00;61776.25;5068630;28;20201;-78
2023/03/11 09:03:56;;;;;;;9.00;2.90;;;;;;;-141.59;100.00;61776.25;5067268;28;20197;-78
2023/03/11 09:06:24;;;;;;;5.10;2.47;;;;;;;-141.59;100.00;61776.25;5065929;28;20205;-78
2023/03/11 09:08:52;;;;;;;4.80;3.77;;;;;;;-141.59;100.00;61776.25;5068121;28;20228;-79
2023/03/11 09:11:21;;;;;;;6.23;4.10;;;;;;;-141.59;100.00;61776.25;5068267;28;20200;-78
2023/03/11 09:13:49;;;;;;;6.67;5.20;;;;;;;-141.59;100.00;61776.25;5059163;28;20220;-77
2023/03/11 09:16:18;;;;;;;7.03;5.63;;;;;;;-141.59;100.00;61776.25;5068425;28;21751;-78
2023/03/11 09:18:45;;;;;;;5.17;4.10;;;;;;;-141.59;100.00;61776.25;5070883;28;20203;-77
2023/03/11 09:21:15;;;;;;;7.97;4.60;;;;;;;-141.59;100.00;61776.25;5069037;28;20212;-77
2023/03/11 09:23:42;;;;;;;5.50;4.23;;;;;;;-141.59;100.00;61776.25;5067079;28;20211;-78
2023/03/11 09:26:11;;;;;;;6.50;4.70;;;;;;;-141.59;100.00;61776.25;5062974;28;20264;-77
2023/03/11 09:28:38;;;;;;;10.33;6.30;;;;;;;-141.59;100.00;61776.25;5060536;28;20209;-77
2023/03/11 09:31:06;;;;;;;10.67;5.87;;;;;;;-141.59;100.00;61776.25;5084140;28;20207;-77
2023/03/11 09:33:37;;;;;;;8.10;5.70;;;;;;;-141.59;100.00;61776.25;5079313;28;20359;-78
2023/03/11 09:36:05;;;;;;;12.63;8.47;;;;;;;-141.59;100.00;61776.25;5069563;28;20189;-78
2023/03/11 09:38:32;;;;;;;17.50;10.23;;;;;;;-141.59;100.00;61776.25;5070446;28;20228;-77
2023/03/11 09:41:04;;;;;;;16.93;9.97;;;;;;;-141.59;100.00;61776.25;5069863;28;20220;-77
2023/03/11 09:43:46;;;;;;;19.67;10.67;;;;;;;-141.59;100.00;61776.25;5085252;28;20197;-77
2023/03/11 09:46:31;;;;;;;10.87;8.20;;;;;;;-141.59;100.00;61776.25;5067682;28;20192;-78
2023/03/11 09:49:09;;;;;;;8.13;5.63;;;;;;;-141.59;100.00;61776.25;5062823;28;20296;-77
2023/03/11 09:51:41;;;;;;;7.23;5.53;;;;;;;-141.59;100.00;61776.25;5078912;28;20193;-79
2023/03/11 09:54:12;;;;;;;11.43;8.50;;;;;;;-141.59;100.00;61776.25;5070835;28;20301;-77
2023/03/11 09:56:42;;;;;;;12.87;9.87;;;;;;;-141.59;100.00;61776.25;5062534;28;20205;-77
2023/03/11 09:59:19;;;;;;;13.20;9.70;;;;;;;-141.59;100.00;61776.25;5070048;28;20240;-78
2023/03/11 10:01:50;;;;;;;12.47;10.10;;;;;;;-141.59;100.00;61776.25;5071732;28;20227;-77
2023/03/11 10:04:25;;;;;;;11.47;7.67;;;;;;;-141.59;100.00;61776.25;5064485;28;20262;-78
2023/03/11 10:06:53;;;;;;;10.33;7.13;;;;;;;-141.59;100.00;61776.25;5070003;28;20205;-79
2023/03/11 10:09:37;;;;;;;14.57;7.30;;;;;;;-141.59;100.00;61776.25;5070955;28;20215;-82
2023/03/11 10:12:17;;;;;;;13.03;8.83;;;;;;;-141.59;100.00;61776.25;5080929;28;20220;-77
2023/03/11 10:14:55;;;;;;;14.90;7.73;;;;;;;-141.59;100.00;61776.25;5087466;28;20240;-77
2023/03/11 10:17:40;;;;;;;12.37;6.30;;;;;;;-141.59;100.00;61776.25;5065278;28;20295;-80
2023/03/11 10:20:14;;;;;;;12.87;7.10;;;;;;;-141.59;100.00;61776.25;5064174;28;20253;-80
2023/03/11 10:22:50;;;;;;;21.30;11.20;;;;;;;-141.59;100.00;61776.25;5067001;28;20223;-81
2023/03/11 10:25:21;;;;;;;20.00;9.60;;;;;;;-141.59;100.00;61776.25;5065480;28;20204;-81
2023/03/11 10:27:51;;;;;;;10.77;7.17;;;;;;;-141.59;100.00;61776.25;5059439;28;20214;-83
2023/03/11 10:30:29;;;;;;;16.27;7.60;;;;;;;-141.59;100.00;61776.25;5064132;28;20202;-83
2023/03/11 10:33:02;;;;;;;17.67;8.23;;;;;;;-141.59;100.00;61776.25;5073717;28;20224;-82
2023/03/11 10:35:37;;;;;;;17.47;8.17;;;;;;;-141.59;100.00;61776.25;5068908;28;20323;-82
2023/03/11 10:38:14;;;;;;;10.93;7.33;;;;;;;-141.59;100.00;61776.25;5069771;28;20204;-81
2023/03/11 10:40:43;;;;;;;16.47;8.70;;;;;;;-141.59;100.00;61776.25;5070597;28;20235;-81
2023/03/11 10:43:16;;;;;;;13.13;7.77;;;;;;;-141.59;100.00;61776.25;5068216;28;20197;-82
2023/03/11 10:45:47;;;;;;;12.40;7.83;;;;;;;-141.59;100.00;61776.25;5072255;28;20777;-81
2023/03/11 10:48:16;;;;;;;14.00;7.90;;;;;;;-141.59;100.00;61776.25;5080966;28;20201;-81
2023/03/11 10:50:50;;;;;;;13.23;6.80;;;;;;;-141.59;100.00;61776.25;5068826;28;20304;-81
2023/03/11 10:53:19;;;;;;;10.57;6.70;;;;;;;-141.59;100.00;61776.25;5071270;28;20225;-80
2023/03/11 10:55:48;;;;;;;9.30;7.00;;;;;;;-141.59;100.00;61776.25;5085578;28;20209;-81
2023/03/11 10:58:23;;;;;;;10.87;6.67;;;;;;;-141.59;100.00;61776.25;5068522;28;20216;-81
2023/03/11 11:01:04;;;;;;;11.40;7.83;;;;;;;-141.59;100.00;61776.25;5067118;28;20204;-81
2023/03/11 11:03:32;;;;;;;9.90;7.33;;;;;;;-141.59;100.00;61776.25;5065098;28;20197;-81
2023/03/11 11:06:02;;;;;;;9.53;6.30;;;;;;;-141.59;100.00;61776.25;5067963;28;20193;-80
2023/03/11 11:08:29;;;;;;;9.73;6.50;;;;;;;-141.59;100.00;61776.25;5082538;28;20314;-82
2023/03/11 11:10:58;;;;;;;8.37;6.10;;;;;;;-141.59;100.00;61776.25;5085078;28;20204;-80
2023/03/11 11:13:29;;;;;;;10.57;6.87;;;;;;;-141.59;100.00;61776.25;5068720;28;20315;-80
2023/03/11 11:15:59;;;;;;;8.97;6.20;;;;;;;-141.59;100.00;61776.25;5083555;28;20307;-81
2023/03/11 11:18:32;;;;;;;10.57;5.87;;;;;;;-141.59;100.00;61776.25;5072529;28;20238;-81
2023/03/11 11:21:04;;;;;;;7.50;5.93;;;;;;;-141.59;100.00;61776.25;5069053;28;20213;-81